Scottsburg, Virginia
Current Conditions -  °F | °C
As of 1:35 AM on Wednesday 28 Jan 2015 (Local Time) from KW78 Reporting Station
Broken Clouds Broken Clouds  
Wind Chill: 20°   Ceiling: 5000
Heat Index: 28°   Visibility: 10mi
Dew Point: 12°   Wind: 7mph
Humidity: 51%   Direction: 290°WNW
Pressure: 30.03"   Gusts: NA
Location:  36.76°N, 78.79°W
Report Text: KW78 280635Z AUTO 29006KT 10SM BKN050 M02/M11 A3003 RMK AO1 T10251113
Loading
Personal Weather Stations






























Interactive Weather Map New forecast layout! Learn more

10-Day Weather Forecast

Advertisements
Track Severe Weather on mobile